createdAt,value
2023-05-17T00:03:03.278Z,13.28
2023-05-17T00:06:20.281Z,13.29
2023-05-17T00:09:37.119Z,13.30
2023-05-17T00:12:54.053Z,13.18
2023-05-17T00:16:10.632Z,13.27
2023-05-17T00:19:27.553Z,13.30
2023-05-17T00:22:46.198Z,13.34
2023-05-17T00:26:02.573Z,13.37
2023-05-17T00:29:19.109Z,13.35
2023-05-17T00:32:35.544Z,13.31
2023-05-17T00:35:52.908Z,13.33
2023-05-17T00:39:09.422Z,13.36
2023-05-17T00:42:26.318Z,13.38
2023-05-17T00:45:42.939Z,13.35
2023-05-17T00:48:59.530Z,13.35
2023-05-17T00:52:17.241Z,13.23
2023-05-17T00:55:34.456Z,13.23
2023-05-17T00:58:51.142Z,13.24
2023-05-17T01:02:08.348Z,13.22
2023-05-17T01:05:25.416Z,13.20
2023-05-17T01:08:42.301Z,13.14
2023-05-17T01:12:08.126Z,13.22
2023-05-17T01:15:28.926Z,13.16
2023-05-17T01:18:51.073Z,13.26
2023-05-17T01:22:15.911Z,13.22
2023-05-17T01:25:44.832Z,13.27
2023-05-17T01:29:04.722Z,13.23
2023-05-17T01:32:22.093Z,13.23
2023-05-17T01:35:40.123Z,13.21
2023-05-17T01:38:57.092Z,13.16
2023-05-17T01:42:20.044Z,13.14
2023-05-17T01:45:40.629Z,13.16
2023-05-17T01:49:02.852Z,13.16
2023-05-17T01:52:25.327Z,13.15
2023-05-17T01:55:50.666Z,13.04
2023-05-17T01:59:08.045Z,13.10
2023-05-17T02:02:24.474Z,13.04
2023-05-17T02:05:41.160Z,13.04
2023-05-17T02:08:59.672Z,13.10
2023-05-17T02:12:17.319Z,13.08
2023-05-17T02:15:33.888Z,13.00
2023-05-17T02:18:50.285Z,12.98
2023-05-17T02:22:07.059Z,13.02
2023-05-17T02:25:24.148Z,12.91
2023-05-17T02:28:40.489Z,12.93
2023-05-17T02:31:59.231Z,12.92
2023-05-17T02:35:17.421Z,12.89
2023-05-17T02:38:33.933Z,12.86
2023-05-17T02:41:50.246Z,12.81
2023-05-17T02:45:06.841Z,12.88
2023-05-17T02:48:24.627Z,12.88
2023-05-17T02:51:41.042Z,12.89
2023-05-17T02:54:58.768Z,12.85
2023-05-17T02:58:15.506Z,12.83
2023-05-17T03:01:33.088Z,12.83
2023-05-17T03:04:49.902Z,12.75
2023-05-17T03:08:06.766Z,12.82
2023-05-17T03:11:27.045Z,12.86
2023-05-17T03:14:45.954Z,12.80
2023-05-17T03:18:02.761Z,12.84
2023-05-17T03:21:19.597Z,12.81
2023-05-17T03:24:36.911Z,12.73
2023-05-17T03:27:53.933Z,12.72
2023-05-17T03:31:10.925Z,12.73
2023-05-17T03:34:27.568Z,12.70
2023-05-17T03:37:44.256Z,12.63
2023-05-17T03:41:01.449Z,12.52
2023-05-17T03:44:18.343Z,12.51
2023-05-17T03:47:35.933Z,12.53
2023-05-17T03:50:53.704Z,12.48
2023-05-17T03:54:11.013Z,12.44
2023-05-17T03:57:29.571Z,12.44
2023-05-17T04:00:46.285Z,12.42
2023-05-17T04:04:05.420Z,12.34
2023-05-17T04:07:21.990Z,12.41
2023-05-17T04:10:41.082Z,12.35
2023-05-17T04:13:55.447Z,12.41
2023-05-17T04:17:11.985Z,12.33
2023-05-17T04:20:28.732Z,12.40
2023-05-17T04:23:46.013Z,12.37
2023-05-17T04:27:05.101Z,12.36
2023-05-17T04:30:25.071Z,12.43
2023-05-17T04:33:42.105Z,12.45
2023-05-17T04:37:00.204Z,12.49
2023-05-17T04:40:19.989Z,12.43
2023-05-17T04:43:37.187Z,12.31
2023-05-17T04:46:55.442Z,12.34
2023-05-17T04:50:13.351Z,12.34
2023-05-17T04:53:29.867Z,12.32
2023-05-17T04:56:50.082Z,12.37
2023-05-17T05:00:11.054Z,12.34
2023-05-17T05:03:30.180Z,12.37
2023-05-17T05:06:47.544Z,12.43
2023-05-17T05:10:05.232Z,12.39
2023-05-17T05:13:22.305Z,12.43
2023-05-17T05:16:39.717Z,12.43
2023-05-17T05:19:56.468Z,12.50
2023-05-17T05:23:13.005Z,12.44
2023-05-17T05:26:30.878Z,12.46
2023-05-17T05:29:47.602Z,12.44
2023-05-17T05:33:04.458Z,12.53
2023-05-17T05:36:21.546Z,12.48
2023-05-17T05:39:40.759Z,12.52
2023-05-17T05:42:59.091Z,12.53
2023-05-17T05:46:15.858Z,12.60
2023-05-17T05:49:32.671Z,12.55
2023-05-17T05:52:49.211Z,12.55
2023-05-17T05:56:05.636Z,12.52
2023-05-17T05:59:22.107Z,12.52
2023-05-17T06:02:39.564Z,12.50
2023-05-17T06:05:56.723Z,12.56
2023-05-17T06:09:13.740Z,12.51
2023-05-17T06:12:30.205Z,12.53
2023-05-17T06:15:48.294Z,12.58
2023-05-17T06:19:04.848Z,12.64
2023-05-17T06:22:21.156Z,12.66
2023-05-17T06:25:39.663Z,12.66
2023-05-17T06:28:58.274Z,12.68
2023-05-17T06:32:15.822Z,12.73
2023-05-17T06:35:43.636Z,12.69
2023-05-17T06:38:52.851Z,12.68
2023-05-17T06:42:09.608Z,12.67
2023-05-17T06:45:28.600Z,12.67
2023-05-17T06:48:45.679Z,12.73
2023-05-17T06:52:04.609Z,12.71
2023-05-17T06:55:21.377Z,12.70
2023-05-17T06:58:37.728Z,12.71
2023-05-17T07:01:54.197Z,12.75
2023-05-17T07:05:15.732Z,12.65
2023-05-17T07:08:32.430Z,12.69
2023-05-17T07:11:48.853Z,12.66
2023-05-17T07:15:05.296Z,12.73
2023-05-17T07:18:22.665Z,12.74
2023-05-17T07:21:39.420Z,12.77
2023-05-17T07:24:56.099Z,12.67
2023-05-17T07:28:13.353Z,12.73
2023-05-17T07:31:29.941Z,12.70
2023-05-17T07:34:46.868Z,12.72
2023-05-17T07:38:03.791Z,12.73
2023-05-17T07:41:23.920Z,12.70
2023-05-17T07:44:40.552Z,12.68
2023-05-17T07:47:57.520Z,12.70
2023-05-17T07:51:14.655Z,12.70
2023-05-17T07:54:34.632Z,12.74
2023-05-17T07:57:53.720Z,12.80
2023-05-17T08:01:11.288Z,12.85
2023-05-17T08:04:27.999Z,12.85
2023-05-17T08:07:44.521Z,12.84
2023-05-17T08:11:01.195Z,12.87
2023-05-17T08:14:18.041Z,12.86
2023-05-17T08:17:34.716Z,12.81
2023-05-17T08:20:53.420Z,12.86
2023-05-17T08:24:09.992Z,12.87
2023-05-17T08:27:28.554Z,12.88
2023-05-17T08:30:47.184Z,12.85
2023-05-17T08:34:04.251Z,12.78
2023-05-17T08:37:20.669Z,12.82
2023-05-17T08:40:37.887Z,12.85
2023-05-17T08:43:55.373Z,12.81
2023-05-17T08:47:15.648Z,12.76
2023-05-17T08:50:35.943Z,12.85
2023-05-17T08:53:52.886Z,12.82
2023-05-17T08:57:12.703Z,12.85
2023-05-17T09:00:35.973Z,12.88
2023-05-17T09:03:55.428Z,12.86
2023-05-17T09:07:12.282Z,12.83
2023-05-17T09:10:31.761Z,12.85
2023-05-17T09:13:48.850Z,12.85
2023-05-17T09:17:08.833Z,12.82
2023-05-17T09:20:34.941Z,12.81
2023-05-17T09:24:04.723Z,12.69
2023-05-17T09:27:13.763Z,12.64
2023-05-17T09:30:39.040Z,12.68
2023-05-17T09:33:56.783Z,12.69
2023-05-17T09:37:22.311Z,12.67
2023-05-17T09:40:40.229Z,12.70
2023-05-17T09:43:57.226Z,12.60
2023-05-17T09:47:14.028Z,12.65
2023-05-17T09:50:32.010Z,12.65
2023-05-17T09:53:48.777Z,12.65
2023-05-17T09:57:11.533Z,12.65
2023-05-17T10:00:30.855Z,12.66
2023-05-17T10:03:47.691Z,12.64
2023-05-17T10:07:04.504Z,12.61
2023-05-17T10:10:24.380Z,12.65
2023-05-17T10:13:46.466Z,12.61
2023-05-17T10:17:03.947Z,12.59
2023-05-17T10:20:23.434Z,12.58
2023-05-17T10:23:43.147Z,12.50
2023-05-17T10:27:00.156Z,12.49
2023-05-17T10:30:20.255Z,12.46
2023-05-17T10:33:39.440Z,12.42
2023-05-17T10:36:53.698Z,12.41
2023-05-17T10:40:12.811Z,12.34
2023-05-17T10:43:31.267Z,12.42
2023-05-17T10:46:48.194Z,12.37
2023-05-17T10:50:04.930Z,12.27
2023-05-17T10:53:21.939Z,12.21
2023-05-17T10:56:38.910Z,12.12
2023-05-17T11:00:08.859Z,12.09
2023-05-17T11:03:29.697Z,12.08
2023-05-17T11:06:48.398Z,12.16
2023-05-17T11:10:11.440Z,12.13
2023-05-17T11:13:36.086Z,12.12
2023-05-17T11:16:52.425Z,12.11
2023-05-17T11:20:19.654Z,12.09
2023-05-17T11:23:38.463Z,12.08
2023-05-17T11:27:01.323Z,12.12
2023-05-17T11:30:30.470Z,12.11
2023-05-17T11:33:52.701Z,12.07
2023-05-17T11:37:09.422Z,12.05
2023-05-17T11:40:34.883Z,12.08
2023-05-17T11:43:56.238Z,12.03
2023-05-17T11:47:14.678Z,12.07
2023-05-17T11:50:31.837Z,12.01
2023-05-17T11:53:51.384Z,11.93
2023-05-17T11:57:11.930Z,11.97
2023-05-17T12:00:35.762Z,11.95
2023-05-17T12:03:53.351Z,11.94
2023-05-17T12:07:12.477Z,11.97
2023-05-17T12:10:28.484Z,12.03
2023-05-17T12:13:49.208Z,11.97
2023-05-17T12:17:09.147Z,11.98
2023-05-17T12:20:27.051Z,12.00
2023-05-17T12:23:49.604Z,11.98
2023-05-17T12:27:05.777Z,11.94
2023-05-17T12:30:29.065Z,11.93
2023-05-17T12:33:53.516Z,11.88
2023-05-17T12:37:11.374Z,11.90
2023-05-17T12:40:32.981Z,11.82
2023-05-17T12:44:06.250Z,11.81
2023-05-17T12:47:16.839Z,11.73
2023-05-17T12:50:36.203Z,11.79
2023-05-17T12:53:56.969Z,11.78
2023-05-17T12:57:22.321Z,11.81
2023-05-17T13:00:43.535Z,11.87
2023-05-17T13:04:02.061Z,11.86
2023-05-17T13:07:20.734Z,11.86
2023-05-17T13:10:43.318Z,11.84
2023-05-17T13:14:04.290Z,11.76
2023-05-17T13:17:25.157Z,11.73
2023-05-17T13:20:41.787Z,11.64
2023-05-17T13:23:59.424Z,11.62
2023-05-17T13:27:17.529Z,11.57
2023-05-17T13:30:39.992Z,11.40
2023-05-17T13:33:57.321Z,11.32
2023-05-17T13:37:15.444Z,11.27
2023-05-17T13:40:32.064Z,11.32
2023-05-17T13:43:48.482Z,11.16
2023-05-17T13:47:05.240Z,11.26
2023-05-17T13:50:24.985Z,11.14
2023-05-17T13:56:47.689Z,11.10
2023-05-17T14:00:06.678Z,11.06
2023-05-17T14:03:23.448Z,10.98
2023-05-17T14:06:40.340Z,10.90
2023-05-17T14:09:57.446Z,10.90
2023-05-17T14:13:14.144Z,10.87
2023-05-17T14:16:36.284Z,10.88
2023-05-17T14:19:58.210Z,10.92
2023-05-17T14:23:19.545Z,10.91
2023-05-17T14:26:39.816Z,10.94
2023-05-17T14:29:57.084Z,10.96
2023-05-17T14:33:15.417Z,10.97
2023-05-17T14:36:35.287Z,10.94
2023-05-17T14:40:05.335Z,10.82
2023-05-17T14:43:08.800Z,10.79
2023-05-17T14:46:25.392Z,10.80
2023-05-17T14:49:43.871Z,10.75
2023-05-17T14:53:01.639Z,10.74
2023-05-17T14:56:23.438Z,10.73
2023-05-17T14:59:43.803Z,10.68
2023-05-17T15:03:01.099Z,10.65
2023-05-17T15:06:18.234Z,10.56
2023-05-17T15:09:36.125Z,10.55
2023-05-17T15:12:53.264Z,10.45
2023-05-17T15:16:10.407Z,10.38
2023-05-17T15:19:30.381Z,10.36
2023-05-17T15:22:48.280Z,10.47
2023-05-17T15:26:05.486Z,10.50
2023-05-17T15:29:24.189Z,10.53
2023-05-17T15:32:43.490Z,10.52
2023-05-17T15:36:03.882Z,10.54
2023-05-17T15:39:20.467Z,10.55
2023-05-17T15:42:37.524Z,10.57
2023-05-17T15:45:54.580Z,10.55
2023-05-17T15:49:11.302Z,10.50
2023-05-17T15:52:28.266Z,10.50
2023-05-17T15:55:45.171Z,10.50
2023-05-17T15:59:02.896Z,10.55
2023-05-17T16:02:22.879Z,10.55
2023-05-17T16:05:40.125Z,10.52
2023-05-17T16:08:57.113Z,10.47
2023-05-17T16:12:14.842Z,10.36
2023-05-17T16:15:42.588Z,10.25
2023-05-17T16:18:59.932Z,10.24
2023-05-17T16:22:17.391Z,10.28
2023-05-17T16:25:35.382Z,10.27
2023-05-17T16:28:54.153Z,10.23
2023-05-17T16:32:11.732Z,10.18
2023-05-17T16:35:28.593Z,10.17
2023-05-17T16:38:46.029Z,10.16
2023-05-17T16:42:02.750Z,10.07
2023-05-17T16:45:23.863Z,10.03
2023-05-17T16:48:42.763Z,10.04
2023-05-17T16:52:02.531Z,9.94
2023-05-17T16:55:22.317Z,9.87
2023-05-17T16:58:41.461Z,9.98
2023-05-17T17:02:10.839Z,9.99
2023-05-17T17:05:29.021Z,9.85
2023-05-17T17:08:47.649Z,9.86
2023-05-17T17:12:23.977Z,9.88
2023-05-17T17:15:42.819Z,9.91
2023-05-17T17:18:59.567Z,9.91
2023-05-17T17:22:22.646Z,9.91
2023-05-17T17:25:42.016Z,9.86
2023-05-17T17:28:59.766Z,9.77
2023-05-17T17:32:18.476Z,9.77
2023-05-17T17:35:35.382Z,9.83
2023-05-17T17:38:52.063Z,9.85
2023-05-17T17:42:11.117Z,9.93
2023-05-17T17:45:28.025Z,9.84
2023-05-17T17:48:47.307Z,9.88
2023-05-17T17:52:06.234Z,9.88
2023-05-17T17:55:22.906Z,9.92
2023-05-17T17:58:39.454Z,9.91
2023-05-17T18:01:55.930Z,10.00
2023-05-17T18:05:13.749Z,10.01
2023-05-17T18:08:30.236Z,10.00
2023-05-17T18:11:47.016Z,10.04
2023-05-17T18:15:04.039Z,10.06
2023-05-17T18:18:22.020Z,10.02
2023-05-17T18:21:39.166Z,9.96
2023-05-17T18:24:56.387Z,10.00
2023-05-17T18:28:14.074Z,9.89
2023-05-17T18:31:32.965Z,9.92
2023-05-17T18:35:04.346Z,9.91
2023-05-17T18:38:27.787Z,9.88
2023-05-17T18:41:44.757Z,9.93
2023-05-17T18:45:01.922Z,9.99
2023-05-17T18:48:18.700Z,10.00
2023-05-17T18:51:37.208Z,9.96
2023-05-17T18:54:53.681Z,9.96
2023-05-17T18:58:10.566Z,9.97
2023-05-17T19:01:27.086Z,9.99
2023-05-17T19:04:43.753Z,10.01
2023-05-17T19:08:00.352Z,9.97
2023-05-17T19:11:16.991Z,9.96
2023-05-17T19:14:34.701Z,9.85
2023-05-17T19:17:53.129Z,9.84
2023-05-17T19:21:17.505Z,9.88
2023-05-17T19:24:36.609Z,9.90
2023-05-17T19:27:53.072Z,9.87
2023-05-17T19:31:12.856Z,9.85
2023-05-17T19:34:30.804Z,9.92
2023-05-17T19:37:49.622Z,9.90
2023-05-17T19:41:06.086Z,9.90
2023-05-17T19:44:22.985Z,9.89
2023-05-17T19:47:39.639Z,9.88
2023-05-17T19:50:57.121Z,9.78
2023-05-17T19:54:14.457Z,9.85
2023-05-17T19:57:32.564Z,9.81
2023-05-17T20:00:49.654Z,9.83
2023-05-17T20:04:06.560Z,9.84
2023-05-17T20:07:24.961Z,9.85
2023-05-17T20:10:41.565Z,9.87
2023-05-17T20:13:58.242Z,9.90
2023-05-17T20:17:15.198Z,9.89
2023-05-17T20:20:32.219Z,9.81
2023-05-17T20:23:55.155Z,9.82
2023-05-17T20:27:12.316Z,9.85
2023-05-17T20:30:29.174Z,9.83
2023-05-17T20:33:45.812Z,9.83
2023-05-17T20:37:02.819Z,9.91
2023-05-17T20:40:21.360Z,9.83
2023-05-17T20:43:38.258Z,9.85
2023-05-17T20:47:00.471Z,9.92
2023-05-17T20:50:20.880Z,9.88
2023-05-17T20:53:39.298Z,9.88
2023-05-17T20:57:07.462Z,9.87
2023-05-17T21:00:25.630Z,9.86
2023-05-17T21:03:42.505Z,9.84
2023-05-17T21:07:02.374Z,9.84
2023-05-17T21:10:19.614Z,9.88
2023-05-17T21:13:40.051Z,9.88
2023-05-17T21:16:58.116Z,9.91
2023-05-17T21:20:17.198Z,9.93
2023-05-17T21:23:36.863Z,9.97
2023-05-17T21:26:56.802Z,10.04
2023-05-17T21:30:22.436Z,10.01
2023-05-17T21:33:41.918Z,10.01
2023-05-17T21:37:01.942Z,9.96
2023-05-17T21:40:20.070Z,9.99
2023-05-17T21:43:37.485Z,9.97
2023-05-17T21:46:54.476Z,9.98
2023-05-17T21:50:12.740Z,9.95
2023-05-17T21:53:29.070Z,9.92
2023-05-17T21:56:45.444Z,9.86
2023-05-17T22:00:04.600Z,9.88
2023-05-17T22:03:23.075Z,9.85
2023-05-17T22:06:39.712Z,9.85
2023-05-17T22:09:56.122Z,9.86
2023-05-17T22:13:13.227Z,9.85
2023-05-17T22:16:31.684Z,9.94
2023-05-17T22:19:49.453Z,9.97
2023-05-17T22:23:06.526Z,9.99
2023-05-17T22:26:25.218Z,10.04
2023-05-17T22:29:42.768Z,10.05
2023-05-17T22:32:59.383Z,10.02
2023-05-17T22:36:18.818Z,10.01
2023-05-17T22:39:32.877Z,10.00
2023-05-17T22:42:49.296Z,10.00
2023-05-17T22:46:05.693Z,10.02
2023-05-17T22:49:22.320Z,10.01
2023-05-17T22:52:40.575Z,10.01
2023-05-17T22:55:57.134Z,10.00
2023-05-17T22:59:17.207Z,9.95
2023-05-17T23:02:34.462Z,9.93
2023-05-17T23:05:52.439Z,9.89
2023-05-17T23:09:09.453Z,9.92
2023-05-17T23:12:27.406Z,9.98
2023-05-17T23:15:45.910Z,9.97
2023-05-17T23:19:04.982Z,9.92
2023-05-17T23:22:21.637Z,9.91
2023-05-17T23:25:38.180Z,9.91
2023-05-17T23:28:56.059Z,9.93
2023-05-17T23:32:12.908Z,9.87
2023-05-17T23:35:32.241Z,9.81
2023-05-17T23:38:48.814Z,9.77
2023-05-17T23:42:07.401Z,9.82
2023-05-17T23:45:23.710Z,9.83
2023-05-17T23:48:40.064Z,9.85
2023-05-17T23:51:57.712Z,9.86
2023-05-17T23:55:15.926Z,9.91
2023-05-17T23:58:32.635Z,9.85
